Terminal Aerodrome Forecast
Issued by NWS

Home | Current Version | Previous Version | Text Only | Print | Product List | Glossary On
Versions: 1 2 3 4 5 6 7 8 9 10 11 12 13 14
455
FTUS46 KPDT 291726
TAFALW
TAF
KALW 291726Z 2918/3018 22013G23KT P6SM -SHRA BKN050
     FM300600 21010KT P6SM BKN050=

USA.gov is the U.S. government's official web portal to all federal, state and local government web resources and services.